sensor_id;sensor_type;location;lat;lon;timestamp;P1;durP1;ratioP1;P2;durP2;ratioP2
54923;SDS011;40825;52.270;20.984;2023-07-29T00:00:36;8.10;;;4.10;;
54923;SDS011;40825;52.270;20.984;2023-07-29T00:03:28;8.60;;;4.00;;
54923;SDS011;40825;52.270;20.984;2023-07-29T00:06:01;8.90;;;4.00;;
54923;SDS011;40825;52.270;20.984;2023-07-29T00:09:11;7.80;;;4.80;;
54923;SDS011;40825;52.270;20.984;2023-07-29T00:15:42;7.70;;;3.70;;
54923;SDS011;40825;52.270;20.984;2023-07-29T00:18:44;7.60;;;4.20;;
54923;SDS011;40825;52.270;20.984;2023-07-29T00:21:41;9.70;;;4.50;;
54923;SDS011;40825;52.270;20.984;2023-07-29T00:27:51;9.00;;;4.40;;
54923;SDS011;40825;52.270;20.984;2023-07-29T00:30:59;10.40;;;4.80;;
54923;SDS011;40825;52.270;20.984;2023-07-29T00:33:27;8.50;;;4.30;;
54923;SDS011;40825;52.270;20.984;2023-07-29T00:35:56;9.90;;;4.80;;
54923;SDS011;40825;52.270;20.984;2023-07-29T00:48:39;9.50;;;5.00;;
54923;SDS011;40825;52.270;20.984;2023-07-29T00:51:59;11.20;;;5.40;;
54923;SDS011;40825;52.270;20.984;2023-07-29T00:54:37;9.60;;;5.80;;
54923;SDS011;40825;52.270;20.984;2023-07-29T00:57:49;10.40;;;5.20;;
54923;SDS011;40825;52.270;20.984;2023-07-29T01:03:56;12.90;;;6.60;;
54923;SDS011;40825;52.270;20.984;2023-07-29T01:06:53;11.30;;;5.90;;
54923;SDS011;40825;52.270;20.984;2023-07-29T01:10:18;12.40;;;5.70;;
54923;SDS011;40825;52.270;20.984;2023-07-29T01:13:51;10.10;;;6.20;;
54923;SDS011;40825;52.270;20.984;2023-07-29T01:27:10;12.30;;;7.10;;
54923;SDS011;40825;52.270;20.984;2023-07-29T01:29:50;12.70;;;7.40;;
54923;SDS011;40825;52.270;20.984;2023-07-29T01:47:07;12.00;;;7.10;;
54923;SDS011;40825;52.270;20.984;2023-07-29T01:53:09;12.00;;;6.70;;
54923;SDS011;40825;52.270;20.984;2023-07-29T02:07:33;11.90;;;7.00;;
54923;SDS011;40825;52.270;20.984;2023-07-29T02:13:38;11.70;;;6.80;;
54923;SDS011;40825;52.270;20.984;2023-07-29T02:16:28;12.70;;;7.60;;
54923;SDS011;40825;52.270;20.984;2023-07-29T02:19:33;12.20;;;6.80;;
54923;SDS011;40825;52.270;20.984;2023-07-29T02:22:34;13.20;;;7.50;;
54923;SDS011;40825;52.270;20.984;2023-07-29T02:25:00;13.00;;;7.40;;
54923;SDS011;40825;52.270;20.984;2023-07-29T02:27:37;13.00;;;7.10;;
54923;SDS011;40825;52.270;20.984;2023-07-29T02:30:25;13.10;;;7.70;;
54923;SDS011;40825;52.270;20.984;2023-07-29T02:33:12;14.60;;;7.70;;
54923;SDS011;40825;52.270;20.984;2023-07-29T02:43:39;15.70;;;9.00;;
54923;SDS011;40825;52.270;20.984;2023-07-29T02:46:06;16.90;;;9.30;;
54923;SDS011;40825;52.270;20.984;2023-07-29T02:52:40;12.50;;;7.60;;
54923;SDS011;40825;52.270;20.984;2023-07-29T02:55:14;15.20;;;8.30;;
54923;SDS011;40825;52.270;20.984;2023-07-29T03:01:23;15.20;;;8.00;;
54923;SDS011;40825;52.270;20.984;2023-07-29T03:04:32;14.10;;;8.00;;
54923;SDS011;40825;52.270;20.984;2023-07-29T03:08:05;14.20;;;7.80;;
54923;SDS011;40825;52.270;20.984;2023-07-29T03:21:12;15.00;;;8.60;;
54923;SDS011;40825;52.270;20.984;2023-07-29T03:24:13;13.70;;;7.80;;
54923;SDS011;40825;52.270;20.984;2023-07-29T03:40:33;14.50;;;7.70;;
54923;SDS011;40825;52.270;20.984;2023-07-29T03:51:11;13.50;;;7.60;;
54923;SDS011;40825;52.270;20.984;2023-07-29T03:53:42;13.50;;;7.70;;
54923;SDS011;40825;52.270;20.984;2023-07-29T03:56:31;13.30;;;8.10;;
54923;SDS011;40825;52.270;20.984;2023-07-29T04:09:17;13.10;;;8.00;;
54923;SDS011;40825;52.270;20.984;2023-07-29T04:12:06;11.50;;;7.20;;
54923;SDS011;40825;52.270;20.984;2023-07-29T04:15:09;12.90;;;7.60;;
54923;SDS011;40825;52.270;20.984;2023-07-29T04:17:35;11.60;;;7.20;;
54923;SDS011;40825;52.270;20.984;2023-07-29T04:20:02;10.70;;;6.60;;
54923;SDS011;40825;52.270;20.984;2023-07-29T04:22:57;11.90;;;7.50;;
54923;SDS011;40825;52.270;20.984;2023-07-29T04:25:46;13.40;;;7.60;;
54923;SDS011;40825;52.270;20.984;2023-07-29T04:31:29;13.60;;;7.80;;
54923;SDS011;40825;52.270;20.984;2023-07-29T04:37:30;12.20;;;7.50;;
54923;SDS011;40825;52.270;20.984;2023-07-29T04:40:07;11.20;;;7.40;;
54923;SDS011;40825;52.270;20.984;2023-07-29T04:42:57;12.20;;;7.60;;
54923;SDS011;40825;52.270;20.984;2023-07-29T04:45:57;12.20;;;7.50;;
54923;SDS011;40825;52.270;20.984;2023-07-29T04:48:55;11.80;;;7.50;;
54923;SDS011;40825;52.270;20.984;2023-07-29T04:55:00;9.80;;;7.00;;
54923;SDS011;40825;52.270;20.984;2023-07-29T04:57:51;11.00;;;7.90;;
54923;SDS011;40825;52.270;20.984;2023-07-29T05:03:56;11.80;;;7.60;;
54923;SDS011;40825;52.270;20.984;2023-07-29T05:24:03;25.70;;;16.60;;
54923;SDS011;40825;52.270;20.984;2023-07-29T05:27:22;24.00;;;14.60;;
54923;SDS011;40825;52.270;20.984;2023-07-29T05:34:37;23.40;;;14.80;;
54923;SDS011;40825;52.270;20.984;2023-07-29T05:41:36;21.70;;;15.20;;
54923;SDS011;40825;52.270;20.984;2023-07-29T05:44:45;23.40;;;16.70;;
54923;SDS011;40825;52.270;20.984;2023-07-29T05:47:43;24.60;;;17.40;;
54923;SDS011;40825;52.270;20.984;2023-07-29T05:53:57;18.20;;;13.00;;
54923;SDS011;40825;52.270;20.984;2023-07-29T05:56:48;18.50;;;13.40;;
54923;SDS011;40825;52.270;20.984;2023-07-29T05:59:43;19.30;;;14.50;;
54923;SDS011;40825;52.270;20.984;2023-07-29T06:02:53;19.90;;;15.10;;
54923;SDS011;40825;52.270;20.984;2023-07-29T06:08:19;19.70;;;16.00;;
54923;SDS011;40825;52.270;20.984;2023-07-29T06:10:48;21.80;;;17.50;;
54923;SDS011;40825;52.270;20.984;2023-07-29T06:13:16;20.20;;;15.20;;
54923;SDS011;40825;52.270;20.984;2023-07-29T06:15:48;21.90;;;15.10;;
54923;SDS011;40825;52.270;20.984;2023-07-29T06:18:34;20.40;;;14.90;;
54923;SDS011;40825;52.270;20.984;2023-07-29T06:21:00;20.00;;;15.20;;
54923;SDS011;40825;52.270;20.984;2023-07-29T06:23:38;18.70;;;15.30;;
54923;SDS011;40825;52.270;20.984;2023-07-29T06:26:16;18.60;;;14.40;;
54923;SDS011;40825;52.270;20.984;2023-07-29T06:28:51;17.80;;;14.60;;
54923;SDS011;40825;52.270;20.984;2023-07-29T06:31:20;17.30;;;12.90;;
54923;SDS011;40825;52.270;20.984;2023-07-29T06:33:48;15.20;;;12.20;;
54923;SDS011;40825;52.270;20.984;2023-07-29T06:36:19;15.80;;;12.00;;
54923;SDS011;40825;52.270;20.984;2023-07-29T06:38:47;14.90;;;11.40;;
54923;SDS011;40825;52.270;20.984;2023-07-29T06:41:13;15.20;;;10.40;;
54923;SDS011;40825;52.270;20.984;2023-07-29T06:44:03;14.50;;;11.30;;
54923;SDS011;40825;52.270;20.984;2023-07-29T06:46:29;14.60;;;11.00;;
54923;SDS011;40825;52.270;20.984;2023-07-29T06:48:55;13.60;;;10.50;;
54923;SDS011;40825;52.270;20.984;2023-07-29T06:51:26;14.50;;;11.20;;
54923;SDS011;40825;52.270;20.984;2023-07-29T06:53:52;13.60;;;11.50;;
54923;SDS011;40825;52.270;20.984;2023-07-29T06:56:17;14.10;;;11.40;;
54923;SDS011;40825;52.270;20.984;2023-07-29T06:58:43;13.30;;;9.30;;
54923;SDS011;40825;52.270;20.984;2023-07-29T07:01:09;11.90;;;8.60;;
54923;SDS011;40825;52.270;20.984;2023-07-29T07:03:35;12.20;;;8.80;;
54923;SDS011;40825;52.270;20.984;2023-07-29T07:06:03;12.00;;;9.20;;
54923;SDS011;40825;52.270;20.984;2023-07-29T07:08:34;11.10;;;7.60;;
54923;SDS011;40825;52.270;20.984;2023-07-29T07:11:29;11.70;;;8.10;;
54923;SDS011;40825;52.270;20.984;2023-07-29T07:13:55;11.80;;;8.70;;
54923;SDS011;40825;52.270;20.984;2023-07-29T07:16:20;12.80;;;8.40;;
54923;SDS011;40825;52.270;20.984;2023-07-29T07:18:46;11.40;;;7.90;;
54923;SDS011;40825;52.270;20.984;2023-07-29T07:21:12;10.70;;;7.90;;
54923;SDS011;40825;52.270;20.984;2023-07-29T07:23:40;12.00;;;7.40;;
54923;SDS011;40825;52.270;20.984;2023-07-29T07:26:06;11.10;;;8.00;;
54923;SDS011;40825;52.270;20.984;2023-07-29T07:34:35;9.40;;;7.40;;
54923;SDS011;40825;52.270;20.984;2023-07-29T07:37:07;9.90;;;7.00;;
54923;SDS011;40825;52.270;20.984;2023-07-29T07:39:32;11.10;;;6.40;;
54923;SDS011;40825;52.270;20.984;2023-07-29T07:41:58;11.30;;;7.30;;
54923;SDS011;40825;52.270;20.984;2023-07-29T07:44:24;9.20;;;7.40;;
54923;SDS011;40825;52.270;20.984;2023-07-29T07:46:52;10.40;;;7.20;;
54923;SDS011;40825;52.270;20.984;2023-07-29T07:49:19;8.10;;;5.80;;
54923;SDS011;40825;52.270;20.984;2023-07-29T07:51:45;8.20;;;6.30;;
54923;SDS011;40825;52.270;20.984;2023-07-29T07:54:10;8.60;;;6.10;;
54923;SDS011;40825;52.270;20.984;2023-07-29T07:56:36;8.40;;;5.80;;
54923;SDS011;40825;52.270;20.984;2023-07-29T07:59:02;8.00;;;5.50;;
54923;SDS011;40825;52.270;20.984;2023-07-29T08:01:49;8.30;;;5.10;;
54923;SDS011;40825;52.270;20.984;2023-07-29T08:04:14;7.50;;;5.40;;
54923;SDS011;40825;52.270;20.984;2023-07-29T08:06:40;7.70;;;5.50;;
54923;SDS011;40825;52.270;20.984;2023-07-29T08:09:08;8.10;;;5.60;;
54923;SDS011;40825;52.270;20.984;2023-07-29T08:11:34;8.40;;;5.90;;
54923;SDS011;40825;52.270;20.984;2023-07-29T08:14:09;8.50;;;5.40;;
54923;SDS011;40825;52.270;20.984;2023-07-29T08:16:37;7.70;;;4.90;;
54923;SDS011;40825;52.270;20.984;2023-07-29T08:19:09;8.50;;;5.50;;
54923;SDS011;40825;52.270;20.984;2023-07-29T08:21:43;7.30;;;5.30;;
54923;SDS011;40825;52.270;20.984;2023-07-29T08:24:12;8.10;;;5.70;;
54923;SDS011;40825;52.270;20.984;2023-07-29T08:26:37;7.40;;;4.60;;
54923;SDS011;40825;52.270;20.984;2023-07-29T08:29:08;9.20;;;5.80;;
54923;SDS011;40825;52.270;20.984;2023-07-29T08:31:34;17.10;;;11.80;;
54923;SDS011;40825;52.270;20.984;2023-07-29T08:34:02;9.10;;;5.20;;
54923;SDS011;40825;52.270;20.984;2023-07-29T08:36:30;6.80;;;3.60;;
54923;SDS011;40825;52.270;20.984;2023-07-29T08:38:56;6.80;;;4.50;;
54923;SDS011;40825;52.270;20.984;2023-07-29T08:41:25;6.10;;;3.80;;
54923;SDS011;40825;52.270;20.984;2023-07-29T08:46:55;7.00;;;4.10;;
54923;SDS011;40825;52.270;20.984;2023-07-29T08:49:22;5.10;;;3.50;;
54923;SDS011;40825;52.270;20.984;2023-07-29T08:51:49;5.10;;;2.60;;
54923;SDS011;40825;52.270;20.984;2023-07-29T08:54:18;5.30;;;2.80;;
54923;SDS011;40825;52.270;20.984;2023-07-29T08:56:44;5.00;;;3.20;;
54923;SDS011;40825;52.270;20.984;2023-07-29T08:59:10;3.40;;;2.00;;
54923;SDS011;40825;52.270;20.984;2023-07-29T09:01:40;4.90;;;2.60;;
54923;SDS011;40825;52.270;20.984;2023-07-29T09:04:06;4.20;;;2.40;;
54923;SDS011;40825;52.270;20.984;2023-07-29T09:06:32;3.60;;;2.20;;
54923;SDS011;40825;52.270;20.984;2023-07-29T09:11:26;3.60;;;2.10;;
54923;SDS011;40825;52.270;20.984;2023-07-29T09:13:52;3.70;;;2.30;;
54923;SDS011;40825;52.270;20.984;2023-07-29T09:16:18;3.80;;;2.00;;
54923;SDS011;40825;52.270;20.984;2023-07-29T09:18:49;4.30;;;2.30;;
54923;SDS011;40825;52.270;20.984;2023-07-29T09:21:16;3.00;;;2.10;;
54923;SDS011;40825;52.270;20.984;2023-07-29T09:23:43;2.90;;;1.90;;
54923;SDS011;40825;52.270;20.984;2023-07-29T09:26:10;2.10;;;1.60;;
54923;SDS011;40825;52.270;20.984;2023-07-29T09:28:39;2.80;;;1.90;;
54923;SDS011;40825;52.270;20.984;2023-07-29T09:31:06;5.80;;;2.60;;
54923;SDS011;40825;52.270;20.984;2023-07-29T09:33:35;3.00;;;1.70;;
54923;SDS011;40825;52.270;20.984;2023-07-29T09:36:10;3.30;;;1.50;;
54923;SDS011;40825;52.270;20.984;2023-07-29T09:38:35;6.20;;;3.90;;
54923;SDS011;40825;52.270;20.984;2023-07-29T09:41:02;7.70;;;5.20;;
54923;SDS011;40825;52.270;20.984;2023-07-29T09:43:32;9.80;;;5.80;;
54923;SDS011;40825;52.270;20.984;2023-07-29T09:45:59;6.00;;;4.10;;
54923;SDS011;40825;52.270;20.984;2023-07-29T09:48:26;2.60;;;1.70;;
54923;SDS011;40825;52.270;20.984;2023-07-29T09:50:53;3.70;;;2.00;;
54923;SDS011;40825;52.270;20.984;2023-07-29T09:53:19;4.70;;;1.60;;
54923;SDS011;40825;52.270;20.984;2023-07-29T09:55:46;3.90;;;2.00;;
54923;SDS011;40825;52.270;20.984;2023-07-29T09:58:19;6.90;;;4.60;;
54923;SDS011;40825;52.270;20.984;2023-07-29T10:00:52;3.30;;;1.40;;
54923;SDS011;40825;52.270;20.984;2023-07-29T10:03:21;2.50;;;1.50;;
54923;SDS011;40825;52.270;20.984;2023-07-29T10:05:47;4.50;;;2.40;;
54923;SDS011;40825;52.270;20.984;2023-07-29T10:08:13;3.20;;;1.50;;
54923;SDS011;40825;52.270;20.984;2023-07-29T10:10:41;2.90;;;1.40;;
54923;SDS011;40825;52.270;20.984;2023-07-29T10:13:07;3.70;;;1.60;;
54923;SDS011;40825;52.270;20.984;2023-07-29T10:15:35;4.70;;;2.10;;
54923;SDS011;40825;52.270;20.984;2023-07-29T10:18:01;3.50;;;1.50;;
54923;SDS011;40825;52.270;20.984;2023-07-29T10:20:28;2.50;;;1.40;;
54923;SDS011;40825;52.270;20.984;2023-07-29T10:22:59;4.50;;;1.90;;
54923;SDS011;40825;52.270;20.984;2023-07-29T10:25:25;3.80;;;1.60;;
54923;SDS011;40825;52.270;20.984;2023-07-29T10:28:05;3.90;;;1.90;;
54923;SDS011;40825;52.270;20.984;2023-07-29T10:30:32;3.90;;;1.90;;
54923;SDS011;40825;52.270;20.984;2023-07-29T10:32:59;4.50;;;2.10;;
54923;SDS011;40825;52.270;20.984;2023-07-29T10:35:27;2.30;;;1.60;;
54923;SDS011;40825;52.270;20.984;2023-07-29T10:37:53;3.00;;;1.40;;
54923;SDS011;40825;52.270;20.984;2023-07-29T10:40:21;3.40;;;1.40;;
54923;SDS011;40825;52.270;20.984;2023-07-29T10:43:00;2.30;;;1.20;;
54923;SDS011;40825;52.270;20.984;2023-07-29T10:45:35;2.70;;;1.70;;
54923;SDS011;40825;52.270;20.984;2023-07-29T10:50:31;3.70;;;2.10;;
54923;SDS011;40825;52.270;20.984;2023-07-29T10:52:57;2.80;;;1.50;;
54923;SDS011;40825;52.270;20.984;2023-07-29T10:55:34;4.60;;;2.20;;
54923;SDS011;40825;52.270;20.984;2023-07-29T10:58:04;2.80;;;1.40;;
54923;SDS011;40825;52.270;20.984;2023-07-29T11:00:48;4.30;;;1.80;;
54923;SDS011;40825;52.270;20.984;2023-07-29T11:03:14;2.90;;;1.80;;
54923;SDS011;40825;52.270;20.984;2023-07-29T11:05:44;2.90;;;1.10;;
54923;SDS011;40825;52.270;20.984;2023-07-29T11:08:17;4.70;;;1.40;;
54923;SDS011;40825;52.270;20.984;2023-07-29T11:10:45;2.70;;;1.50;;
54923;SDS011;40825;52.270;20.984;2023-07-29T11:13:36;3.20;;;1.60;;
54923;SDS011;40825;52.270;20.984;2023-07-29T11:16:02;2.60;;;1.30;;
54923;SDS011;40825;52.270;20.984;2023-07-29T11:18:30;3.10;;;1.50;;
54923;SDS011;40825;52.270;20.984;2023-07-29T11:20:57;3.10;;;1.30;;
54923;SDS011;40825;52.270;20.984;2023-07-29T11:23:30;2.90;;;1.10;;
54923;SDS011;40825;52.270;20.984;2023-07-29T11:26:03;3.30;;;1.50;;
54923;SDS011;40825;52.270;20.984;2023-07-29T11:28:29;2.80;;;1.30;;
54923;SDS011;40825;52.270;20.984;2023-07-29T11:30:55;3.00;;;1.50;;
54923;SDS011;40825;52.270;20.984;2023-07-29T11:33:27;2.20;;;1.20;;
54923;SDS011;40825;52.270;20.984;2023-07-29T11:35:55;2.40;;;1.20;;
54923;SDS011;40825;52.270;20.984;2023-07-29T11:38:24;2.70;;;1.50;;
54923;SDS011;40825;52.270;20.984;2023-07-29T11:40:56;3.70;;;1.40;;
54923;SDS011;40825;52.270;20.984;2023-07-29T11:43:29;3.40;;;1.70;;
54923;SDS011;40825;52.270;20.984;2023-07-29T11:45:55;2.70;;;1.30;;
54923;SDS011;40825;52.270;20.984;2023-07-29T11:48:30;2.50;;;1.00;;
54923;SDS011;40825;52.270;20.984;2023-07-29T11:50:58;3.50;;;1.40;;
54923;SDS011;40825;52.270;20.984;2023-07-29T11:53:25;2.70;;;1.30;;
54923;SDS011;40825;52.270;20.984;2023-07-29T11:56:03;1.90;;;1.20;;
54923;SDS011;40825;52.270;20.984;2023-07-29T11:58:38;2.60;;;1.30;;
54923;SDS011;40825;52.270;20.984;2023-07-29T12:01:03;2.30;;;1.30;;
54923;SDS011;40825;52.270;20.984;2023-07-29T12:03:30;3.70;;;1.60;;
54923;SDS011;40825;52.270;20.984;2023-07-29T12:05:59;2.50;;;1.80;;
54923;SDS011;40825;52.270;20.984;2023-07-29T12:08:28;2.60;;;1.40;;
54923;SDS011;40825;52.270;20.984;2023-07-29T12:10:59;2.70;;;1.20;;
54923;SDS011;40825;52.270;20.984;2023-07-29T12:13:25;2.40;;;1.10;;
54923;SDS011;40825;52.270;20.984;2023-07-29T12:15:50;2.90;;;1.40;;
54923;SDS011;40825;52.270;20.984;2023-07-29T12:18:16;3.30;;;1.20;;
54923;SDS011;40825;52.270;20.984;2023-07-29T12:20:43;3.20;;;1.50;;
54923;SDS011;40825;52.270;20.984;2023-07-29T12:23:09;2.90;;;1.40;;
54923;SDS011;40825;52.270;20.984;2023-07-29T12:25:37;3.50;;;2.00;;
54923;SDS011;40825;52.270;20.984;2023-07-29T12:28:04;2.40;;;1.50;;
54923;SDS011;40825;52.270;20.984;2023-07-29T12:30:31;3.10;;;1.80;;
54923;SDS011;40825;52.270;20.984;2023-07-29T12:32:56;2.50;;;1.40;;
54923;SDS011;40825;52.270;20.984;2023-07-29T12:35:22;2.70;;;1.30;;
54923;SDS011;40825;52.270;20.984;2023-07-29T12:40:45;2.70;;;1.50;;
54923;SDS011;40825;52.270;20.984;2023-07-29T12:43:11;4.10;;;1.80;;
54923;SDS011;40825;52.270;20.984;2023-07-29T12:45:37;2.20;;;1.10;;
54923;SDS011;40825;52.270;20.984;2023-07-29T12:48:05;3.90;;;1.50;;
54923;SDS011;40825;52.270;20.984;2023-07-29T12:50:31;2.90;;;1.60;;
54923;SDS011;40825;52.270;20.984;2023-07-29T12:52:57;3.70;;;1.50;;
54923;SDS011;40825;52.270;20.984;2023-07-29T12:55:22;2.80;;;1.30;;
54923;SDS011;40825;52.270;20.984;2023-07-29T12:57:55;4.00;;;1.20;;
54923;SDS011;40825;52.270;20.984;2023-07-29T13:00:26;3.70;;;1.60;;
54923;SDS011;40825;52.270;20.984;2023-07-29T13:02:52;3.20;;;1.50;;
54923;SDS011;40825;52.270;20.984;2023-07-29T13:05:18;2.90;;;1.50;;
54923;SDS011;40825;52.270;20.984;2023-07-29T13:07:47;3.80;;;1.70;;
54923;SDS011;40825;52.270;20.984;2023-07-29T13:10:16;3.10;;;1.70;;
54923;SDS011;40825;52.270;20.984;2023-07-29T13:12:44;3.60;;;1.60;;
54923;SDS011;40825;52.270;20.984;2023-07-29T13:15:19;2.90;;;1.50;;
54923;SDS011;40825;52.270;20.984;2023-07-29T13:18:06;3.00;;;1.70;;
54923;SDS011;40825;52.270;20.984;2023-07-29T13:20:43;4.40;;;1.90;;
54923;SDS011;40825;52.270;20.984;2023-07-29T13:23:08;3.90;;;1.80;;
54923;SDS011;40825;52.270;20.984;2023-07-29T13:25:37;3.50;;;1.60;;
54923;SDS011;40825;52.270;20.984;2023-07-29T13:28:03;3.90;;;1.90;;
54923;SDS011;40825;52.270;20.984;2023-07-29T13:30:29;3.70;;;1.70;;
54923;SDS011;40825;52.270;20.984;2023-07-29T13:32:56;2.40;;;1.40;;
54923;SDS011;40825;52.270;20.984;2023-07-29T13:35:22;2.80;;;1.60;;
54923;SDS011;40825;52.270;20.984;2023-07-29T13:37:59;3.80;;;1.80;;
54923;SDS011;40825;52.270;20.984;2023-07-29T13:40:39;3.70;;;1.30;;
54923;SDS011;40825;52.270;20.984;2023-07-29T13:43:10;4.00;;;1.90;;
54923;SDS011;40825;52.270;20.984;2023-07-29T13:45:38;3.70;;;1.70;;
54923;SDS011;40825;52.270;20.984;2023-07-29T13:48:04;4.30;;;1.50;;
54923;SDS011;40825;52.270;20.984;2023-07-29T13:50:29;3.20;;;1.90;;
54923;SDS011;40825;52.270;20.984;2023-07-29T13:52:58;2.00;;;1.20;;
54923;SDS011;40825;52.270;20.984;2023-07-29T13:55:23;2.40;;;1.50;;
54923;SDS011;40825;52.270;20.984;2023-07-29T13:57:49;4.90;;;1.80;;
54923;SDS011;40825;52.270;20.984;2023-07-29T14:00:15;2.20;;;1.10;;
54923;SDS011;40825;52.270;20.984;2023-07-29T14:02:43;3.10;;;1.80;;
54923;SDS011;40825;52.270;20.984;2023-07-29T14:05:08;2.90;;;1.30;;
54923;SDS011;40825;52.270;20.984;2023-07-29T14:07:37;3.00;;;1.30;;
54923;SDS011;40825;52.270;20.984;2023-07-29T14:10:02;4.00;;;1.90;;
54923;SDS011;40825;52.270;20.984;2023-07-29T14:12:28;3.90;;;1.40;;
54923;SDS011;40825;52.270;20.984;2023-07-29T14:14:54;2.60;;;1.70;;
54923;SDS011;40825;52.270;20.984;2023-07-29T14:17:20;2.10;;;1.20;;
54923;SDS011;40825;52.270;20.984;2023-07-29T14:19:46;3.40;;;1.60;;
54923;SDS011;40825;52.270;20.984;2023-07-29T14:22:11;4.60;;;1.40;;
54923;SDS011;40825;52.270;20.984;2023-07-29T14:24:37;3.40;;;1.60;;
54923;SDS011;40825;52.270;20.984;2023-07-29T14:27:02;2.70;;;1.50;;
54923;SDS011;40825;52.270;20.984;2023-07-29T14:29:28;3.40;;;1.60;;
54923;SDS011;40825;52.270;20.984;2023-07-29T14:31:54;3.70;;;1.80;;
54923;SDS011;40825;52.270;20.984;2023-07-29T14:34:19;2.70;;;1.60;;
54923;SDS011;40825;52.270;20.984;2023-07-29T14:36:45;4.90;;;1.50;;
54923;SDS011;40825;52.270;20.984;2023-07-29T14:39:11;2.60;;;1.40;;
54923;SDS011;40825;52.270;20.984;2023-07-29T14:41:36;4.90;;;1.50;;
54923;SDS011;40825;52.270;20.984;2023-07-29T14:44:02;3.40;;;1.60;;
54923;SDS011;40825;52.270;20.984;2023-07-29T14:46:28;2.90;;;1.40;;
54923;SDS011;40825;52.270;20.984;2023-07-29T14:48:53;2.00;;;1.30;;
54923;SDS011;40825;52.270;20.984;2023-07-29T14:51:19;2.60;;;1.20;;
54923;SDS011;40825;52.270;20.984;2023-07-29T14:53:45;3.10;;;1.70;;
54923;SDS011;40825;52.270;20.984;2023-07-29T14:59:29;4.50;;;1.50;;
54923;SDS011;40825;52.270;20.984;2023-07-29T15:04:43;2.80;;;1.30;;
54923;SDS011;40825;52.270;20.984;2023-07-29T15:07:09;3.00;;;1.60;;
54923;SDS011;40825;52.270;20.984;2023-07-29T15:09:34;2.30;;;1.40;;
54923;SDS011;40825;52.270;20.984;2023-07-29T15:12:08;4.00;;;1.70;;
54923;SDS011;40825;52.270;20.984;2023-07-29T15:14:34;5.30;;;2.70;;
54923;SDS011;40825;52.270;20.984;2023-07-29T15:16:59;3.90;;;2.20;;
54923;SDS011;40825;52.270;20.984;2023-07-29T15:19:25;3.30;;;1.90;;
54923;SDS011;40825;52.270;20.984;2023-07-29T15:21:51;3.20;;;1.80;;
54923;SDS011;40825;52.270;20.984;2023-07-29T15:24:16;2.30;;;1.40;;
54923;SDS011;40825;52.270;20.984;2023-07-29T15:26:42;4.00;;;1.80;;
54923;SDS011;40825;52.270;20.984;2023-07-29T15:33:08;3.60;;;2.30;;
54923;SDS011;40825;52.270;20.984;2023-07-29T15:35:37;3.40;;;1.60;;
54923;SDS011;40825;52.270;20.984;2023-07-29T15:38:07;3.30;;;2.10;;
54923;SDS011;40825;52.270;20.984;2023-07-29T15:40:32;2.80;;;1.70;;
54923;SDS011;40825;52.270;20.984;2023-07-29T15:42:58;3.50;;;1.90;;
54923;SDS011;40825;52.270;20.984;2023-07-29T15:45:26;3.30;;;1.80;;
54923;SDS011;40825;52.270;20.984;2023-07-29T15:47:59;3.80;;;1.70;;
54923;SDS011;40825;52.270;20.984;2023-07-29T15:50:25;4.20;;;2.10;;
54923;SDS011;40825;52.270;20.984;2023-07-29T15:52:51;2.60;;;1.40;;
54923;SDS011;40825;52.270;20.984;2023-07-29T15:55:25;3.10;;;2.00;;
54923;SDS011;40825;52.270;20.984;2023-07-29T15:57:57;4.80;;;1.40;;
54923;SDS011;40825;52.270;20.984;2023-07-29T16:00:22;3.20;;;1.90;;
54923;SDS011;40825;52.270;20.984;2023-07-29T16:02:49;2.60;;;1.60;;
54923;SDS011;40825;52.270;20.984;2023-07-29T16:05:24;3.90;;;1.60;;
54923;SDS011;40825;52.270;20.984;2023-07-29T16:07:50;5.00;;;1.90;;
54923;SDS011;40825;52.270;20.984;2023-07-29T16:10:25;3.50;;;1.50;;
54923;SDS011;40825;52.270;20.984;2023-07-29T16:12:50;5.10;;;1.90;;
54923;SDS011;40825;52.270;20.984;2023-07-29T16:15:16;3.10;;;1.60;;
54923;SDS011;40825;52.270;20.984;2023-07-29T16:17:42;3.60;;;1.80;;
54923;SDS011;40825;52.270;20.984;2023-07-29T16:20:10;3.40;;;1.80;;
54923;SDS011;40825;52.270;20.984;2023-07-29T16:22:39;5.50;;;1.50;;
54923;SDS011;40825;52.270;20.984;2023-07-29T16:25:08;3.50;;;1.40;;
54923;SDS011;40825;52.270;20.984;2023-07-29T16:27:35;4.10;;;1.50;;
54923;SDS011;40825;52.270;20.984;2023-07-29T16:30:02;4.00;;;1.70;;
54923;SDS011;40825;52.270;20.984;2023-07-29T16:32:29;2.50;;;1.40;;
54923;SDS011;40825;52.270;20.984;2023-07-29T16:34:54;2.90;;;1.70;;
54923;SDS011;40825;52.270;20.984;2023-07-29T16:37:20;2.50;;;1.40;;
54923;SDS011;40825;52.270;20.984;2023-07-29T16:39:53;3.80;;;1.60;;
54923;SDS011;40825;52.270;20.984;2023-07-29T16:42:19;3.40;;;1.70;;
54923;SDS011;40825;52.270;20.984;2023-07-29T16:44:47;4.00;;;1.40;;
54923;SDS011;40825;52.270;20.984;2023-07-29T16:47:13;3.60;;;1.80;;
54923;SDS011;40825;52.270;20.984;2023-07-29T16:49:57;3.10;;;1.70;;
54923;SDS011;40825;52.270;20.984;2023-07-29T16:52:28;3.40;;;1.60;;
54923;SDS011;40825;52.270;20.984;2023-07-29T16:54:54;4.10;;;1.90;;
54923;SDS011;40825;52.270;20.984;2023-07-29T16:57:19;3.50;;;1.80;;
54923;SDS011;40825;52.270;20.984;2023-07-29T17:00:06;5.20;;;1.60;;
54923;SDS011;40825;52.270;20.984;2023-07-29T17:02:34;4.10;;;1.40;;
54923;SDS011;40825;52.270;20.984;2023-07-29T17:04:59;5.00;;;1.80;;
54923;SDS011;40825;52.270;20.984;2023-07-29T17:07:26;3.80;;;1.90;;
54923;SDS011;40825;52.270;20.984;2023-07-29T17:10:03;5.10;;;2.10;;
54923;SDS011;40825;52.270;20.984;2023-07-29T17:12:29;3.60;;;1.70;;
54923;SDS011;40825;52.270;20.984;2023-07-29T17:14:55;4.00;;;1.60;;
54923;SDS011;40825;52.270;20.984;2023-07-29T17:17:31;3.30;;;2.00;;
54923;SDS011;40825;52.270;20.984;2023-07-29T17:22:55;3.20;;;1.80;;
54923;SDS011;40825;52.270;20.984;2023-07-29T17:25:20;6.30;;;2.20;;
54923;SDS011;40825;52.270;20.984;2023-07-29T17:28:21;3.80;;;1.90;;
54923;SDS011;40825;52.270;20.984;2023-07-29T17:30:49;7.80;;;2.30;;
54923;SDS011;40825;52.270;20.984;2023-07-29T17:33:18;4.90;;;2.00;;
54923;SDS011;40825;52.270;20.984;2023-07-29T17:38:59;4.70;;;2.10;;
54923;SDS011;40825;52.270;20.984;2023-07-29T17:41:24;3.50;;;1.80;;
54923;SDS011;40825;52.270;20.984;2023-07-29T17:43:52;3.30;;;1.80;;
54923;SDS011;40825;52.270;20.984;2023-07-29T17:46:18;5.60;;;2.30;;
54923;SDS011;40825;52.270;20.984;2023-07-29T17:48:46;4.00;;;2.10;;
54923;SDS011;40825;52.270;20.984;2023-07-29T17:51:23;6.80;;;2.40;;
54923;SDS011;40825;52.270;20.984;2023-07-29T17:53:59;4.30;;;2.10;;
54923;SDS011;40825;52.270;20.984;2023-07-29T17:56:26;9.10;;;2.40;;
54923;SDS011;40825;52.270;20.984;2023-07-29T17:58:53;5.40;;;2.00;;
54923;SDS011;40825;52.270;20.984;2023-07-29T18:04:06;5.60;;;2.30;;
54923;SDS011;40825;52.270;20.984;2023-07-29T18:06:41;4.50;;;2.60;;
54923;SDS011;40825;52.270;20.984;2023-07-29T18:09:15;4.50;;;2.30;;
54923;SDS011;40825;52.270;20.984;2023-07-29T18:11:41;4.60;;;2.20;;
54923;SDS011;40825;52.270;20.984;2023-07-29T18:17:12;5.20;;;3.20;;
54923;SDS011;40825;52.270;20.984;2023-07-29T18:19:57;5.30;;;2.60;;
54923;SDS011;40825;52.270;20.984;2023-07-29T18:22:30;6.10;;;3.30;;
54923;SDS011;40825;52.270;20.984;2023-07-29T18:24:56;5.50;;;3.10;;
54923;SDS011;40825;52.270;20.984;2023-07-29T18:27:22;7.10;;;3.20;;
54923;SDS011;40825;52.270;20.984;2023-07-29T18:29:48;7.90;;;2.80;;